Time;durP1;ratioP1;P1;durP2;ratioP2;P2;SDS_P1;SDS_P2;PMS_P1;PMS_P2;Temp;Humidity;BMP_temperature;BMP_pressure;BME280_temperature;BME280_humidity;BME280_pressure;Samples;Min_cycle;Max_cycle;Signal;HPM_P1;HPM_P2
2023/04/29 00:00:37;;;;;;;8.60;4.93;;;11.20;58.60;;;;;;5088022;28;20024;-74
2023/04/29 00:03:03;;;;;;;7.68;3.42;;;11.20;59.20;;;;;;5095727;28;20072;-74
2023/04/29 00:05:28;;;;;;;4.95;3.53;;;11.20;58.70;;;;;;5091930;28;20529;-74
2023/04/29 00:07:54;;;;;;;6.38;4.45;;;11.30;59.00;;;;;;5078911;28;20021;-74
2023/04/29 00:10:19;;;;;;;7.10;4.40;;;11.30;58.80;;;;;;5078149;28;20016;-74
2023/04/29 00:12:45;;;;;;;7.53;3.80;;;11.30;59.10;;;;;;5080056;28;20312;-74
2023/04/29 00:15:10;;;;;;;7.18;3.65;;;11.20;59.00;;;;;;5088055;28;20111;-74
2023/04/29 00:17:36;;;;;;;7.43;4.00;;;11.30;58.60;;;;;;5092340;28;20111;-74
2023/04/29 00:20:03;;;;;;;7.40;4.15;;;11.30;59.10;;;;;;5075140;28;20020;-75
2023/04/29 00:22:28;;;;;;;6.30;4.18;;;11.20;58.90;;;;;;5085600;28;20429;-74
2023/04/29 00:24:54;;;;;;;9.85;5.38;;;11.40;58.60;;;;;;5089214;28;20020;-75
2023/04/29 00:27:20;;;;;;;6.60;4.32;;;11.40;59.00;;;;;;5089711;28;20028;-74
2023/04/29 00:29:45;;;;;;;6.63;4.07;;;11.30;58.70;;;;;;5076508;28;20090;-74
2023/04/29 00:32:11;;;;;;;8.48;4.40;;;11.20;59.00;;;;;;5077893;28;20033;-74
2023/04/29 00:34:36;;;;;;;8.40;3.90;;;11.10;58.90;;;;;;5090292;28;20032;-74
2023/04/29 00:37:04;;;;;;;6.90;4.57;;;11.10;58.80;;;;;;5081864;28;20326;-75
2023/04/29 00:39:30;;;;;;;9.43;5.63;;;11.20;58.50;;;;;;5087042;28;20416;-75
2023/04/29 00:41:55;;;;;;;8.38;3.63;;;11.20;58.70;;;;;;5088622;28;20032;-74
2023/04/29 00:44:21;;;;;;;9.45;4.72;;;11.30;58.80;;;;;;5093435;28;20079;-74
2023/04/29 00:46:47;;;;;;;6.25;4.78;;;11.20;58.70;;;;;;5076403;28;20061;-75
2023/04/29 00:49:14;;;;;;;6.20;4.15;;;11.20;58.80;;;;;;5087272;28;20028;-73
2023/04/29 00:51:40;;;;;;;7.85;4.80;;;11.20;58.60;;;;;;5094916;28;20035;-73
2023/04/29 00:54:07;;;;;;;7.32;5.30;;;11.30;58.70;;;;;;5078297;28;20063;-73
2023/04/29 00:56:34;;;;;;;5.85;4.47;;;11.30;58.60;;;;;;5091939;28;20035;-73
2023/04/29 00:59:01;;;;;;;7.00;4.07;;;11.40;58.70;;;;;;5079024;28;20062;-72
2023/04/29 01:01:28;;;;;;;8.85;4.57;;;11.30;58.70;;;;;;5085131;28;20022;-73
2023/04/29 01:03:54;;;;;;;6.85;4.93;;;11.30;58.60;;;;;;5091068;28;20056;-73
2023/04/29 01:06:27;;;;;;;7.78;4.90;;;11.20;58.90;;;;;;5081776;28;20055;-73
2023/04/29 01:09:23;;;;;;;7.47;4.95;;;11.30;58.40;;;;;;5079134;28;20417;-73
2023/04/29 01:12:05;;;;;;;8.63;5.15;;;11.60;58.80;;;;;;5089673;28;20028;-73
2023/04/29 01:14:33;;;;;;;8.43;4.57;;;11.60;58.80;;;;;;5088809;28;20024;-72
2023/04/29 01:17:02;;;;;;;8.68;4.95;;;11.70;58.60;;;;;;5074695;28;20044;-73
2023/04/29 01:19:49;;;;;;;7.40;5.15;;;11.80;58.70;;;;;;5086422;28;20323;-73
2023/04/29 01:22:16;;;;;;;7.18;5.30;;;11.70;58.60;;;;;;5075516;28;20409;-73
2023/04/29 01:24:42;;;;;;;7.30;4.72;;;11.70;58.60;;;;;;5089040;28;20051;-72
2023/04/29 01:27:11;;;;;;;6.88;4.32;;;11.70;58.60;;;;;;5080219;28;20056;-72
2023/04/29 01:30:06;;;;;;;9.18;4.63;;;11.70;58.70;;;;;;5073871;28;20047;-75
2023/04/29 01:32:46;;;;;;;9.10;4.65;;;11.60;58.70;;;;;;5077196;28;20024;-74
2023/04/29 01:35:49;;;;;;;10.90;5.40;;;11.70;58.60;;;;;;5081824;28;20029;-74
2023/04/29 01:38:23;;;;;;;7.32;4.47;;;11.60;58.80;;;;;;5077549;28;20051;-73
2023/04/29 01:41:04;;;;;;;8.32;3.65;;;11.60;58.80;;;;;;5083649;28;20089;-74
2023/04/29 01:43:33;;;;;;;9.65;4.90;;;11.40;59.00;;;;;;5093289;28;20032;-74
2023/04/29 01:45:59;;;;;;;6.07;3.88;;;11.20;59.20;;;;;;5091925;28;20037;-74
2023/04/29 01:48:25;;;;;;;7.13;4.93;;;11.20;58.70;;;;;;5084016;28;20082;-74
2023/04/29 01:50:51;;;;;;;10.02;5.20;;;11.40;58.70;;;;;;5080225;28;20064;-74
2023/04/29 01:53:16;;;;;;;5.50;3.15;;;11.30;59.40;;;;;;5088804;28;20425;-74
2023/04/29 01:55:42;;;;;;;6.07;3.83;;;11.00;60.10;;;;;;5084772;28;20029;-74
2023/04/29 01:58:09;;;;;;;7.30;4.85;;;10.80;59.90;;;;;;5075477;28;20421;-75
2023/04/29 02:00:36;;;;;;;5.13;3.67;;;10.70;59.00;;;;;;5075128;28;20469;-74
2023/04/29 02:03:02;;;;;;;9.15;5.45;;;10.80;59.00;;;;;;5076796;28;20440;-74
2023/04/29 02:05:31;;;;;;;8.23;3.78;;;10.90;58.70;;;;;;5092644;28;20077;-74
2023/04/29 02:07:56;;;;;;;8.68;5.57;;;10.90;59.40;;;;;;5081256;28;20443;-74
2023/04/29 02:10:22;;;;;;;9.50;5.65;;;10.70;59.90;;;;;;5094473;28;20028;-74
2023/04/29 02:12:50;;;;;;;7.03;4.60;;;10.50;59.70;;;;;;5088789;28;20044;-74
2023/04/29 02:15:16;;;;;;;7.55;5.22;;;10.30;59.80;;;;;;5086536;28;20477;-74
2023/04/29 02:17:42;;;;;;;11.35;4.97;;;10.30;58.90;;;;;;5081437;28;20120;-74
2023/04/29 02:20:09;;;;;;;6.70;4.25;;;10.40;59.10;;;;;;5089197;28;20039;-73
2023/04/29 02:22:34;;;;;;;7.38;4.22;;;10.40;59.40;;;;;;5080496;28;20031;-74
2023/04/29 02:25:00;;;;;;;7.78;4.80;;;10.30;59.50;;;;;;5083792;28;20028;-74
2023/04/29 02:27:26;;;;;;;9.95;4.90;;;10.10;59.40;;;;;;5079078;28;20074;-73
2023/04/29 02:29:51;;;;;;;5.78;3.95;;;10.30;58.80;;;;;;5087520;28;20090;-74
2023/04/29 02:32:19;;;;;;;8.45;4.93;;;10.40;59.10;;;;;;5088483;28;20032;-74
2023/04/29 02:34:44;;;;;;;7.05;4.60;;;10.40;58.90;;;;;;5086624;28;20313;-74
2023/04/29 02:37:10;;;;;;;6.15;4.00;;;10.30;59.30;;;;;;5088736;28;20021;-74
2023/04/29 02:39:36;;;;;;;7.57;4.85;;;10.30;58.70;;;;;;5088486;28;20032;-73
2023/04/29 02:42:01;;;;;;;7.85;5.18;;;10.70;58.70;;;;;;5078841;28;20307;-74
2023/04/29 02:44:27;;;;;;;8.30;4.03;;;10.70;59.20;;;;;;5085133;28;20060;-74
2023/04/29 02:46:53;;;;;;;7.80;5.20;;;10.50;59.10;;;;;;5088536;28;20031;-74
2023/04/29 02:49:18;;;;;;;6.75;4.85;;;10.60;58.80;;;;;;5096106;28;20367;-74
2023/04/29 02:51:44;;;;;;;11.98;6.93;;;10.70;58.80;;;;;;5097569;28;20022;-74
2023/04/29 02:54:11;;;;;;;8.90;5.35;;;10.80;58.80;;;;;;5093294;28;20028;-74
2023/04/29 02:56:36;;;;;;;8.68;5.65;;;10.70;59.00;;;;;;5076741;28;20021;-74
2023/04/29 02:59:02;;;;;;;8.52;5.55;;;10.70;59.10;;;;;;5095418;28;20374;-74
2023/04/29 03:01:28;;;;;;;9.90;5.80;;;10.80;58.70;;;;;;5079647;28;20413;-74
2023/04/29 03:03:53;;;;;;;11.48;6.00;;;10.90;58.60;;;;;;5084880;28;20429;-73
2023/04/29 03:06:19;;;;;;;7.78;5.50;;;11.00;58.60;;;;;;5079826;28;20086;-74
2023/04/29 03:08:45;;;;;;;8.73;6.25;;;11.10;58.70;;;;;;5094914;28;20110;-74
2023/04/29 03:11:10;;;;;;;7.43;6.00;;;11.10;58.60;;;;;;5097735;28;20107;-75
2023/04/29 03:13:37;;;;;;;9.15;5.93;;;11.30;58.60;;;;;;5081999;28;20417;-74
2023/04/29 03:16:03;;;;;;;11.35;6.53;;;11.20;59.00;;;;;;5078843;28;20318;-74
2023/04/29 03:18:28;;;;;;;10.63;5.97;;;11.10;58.90;;;;;;5085228;28;20039;-75
2023/04/29 03:20:54;;;;;;;8.43;6.22;;;11.20;58.60;;;;;;5084735;28;20028;-73
2023/04/29 03:23:21;;;;;;;8.73;6.53;;;11.20;58.70;;;;;;5087058;28;20433;-74
2023/04/29 03:25:46;;;;;;;10.50;5.93;;;11.20;58.70;;;;;;5089823;28;20040;-74
2023/04/29 03:28:12;;;;;;;7.03;5.60;;;11.30;58.60;;;;;;5078930;28;20129;-73
2023/04/29 03:30:37;;;;;;;9.60;7.25;;;11.30;58.80;;;;;;5084052;28;20040;-74
2023/04/29 03:33:03;;;;;;;8.38;5.38;;;11.30;58.80;;;;;;5085302;28;20028;-74
2023/04/29 03:35:28;;;;;;;8.25;5.78;;;11.10;59.50;;;;;;5079058;28;20028;-74
2023/04/29 03:37:54;;;;;;;10.23;6.13;;;11.00;58.90;;;;;;5080425;28;20033;-74
2023/04/29 03:40:20;;;;;;;9.30;7.07;;;11.00;59.00;;;;;;5080502;28;20372;-74
2023/04/29 03:42:49;;;;;;;8.80;5.97;;;11.00;58.70;;;;;;5078994;28;20032;-74
2023/04/29 03:45:14;;;;;;;9.65;6.20;;;11.00;58.80;;;;;;5077861;28;20040;-74
2023/04/29 03:47:40;;;;;;;9.10;6.20;;;11.10;58.70;;;;;;5089233;28;20028;-74
2023/04/29 03:50:07;;;;;;;10.85;5.97;;;11.10;58.80;;;;;;5097391;28;20110;-74
2023/04/29 03:52:35;;;;;;;9.45;6.00;;;11.10;58.70;;;;;;5086171;28;20078;-74
2023/04/29 03:55:01;;;;;;;9.95;5.72;;;11.00;58.80;;;;;;5082402;28;20062;-74
2023/04/29 03:57:27;;;;;;;8.95;6.85;;;11.00;58.80;;;;;;5080894;28;20032;-74
2023/04/29 03:59:52;;;;;;;7.78;5.93;;;11.00;58.80;;;;;;5087291;28;20028;-74
2023/04/29 04:02:18;;;;;;;9.30;5.93;;;11.00;58.80;;;;;;5081487;28;20033;-74
2023/04/29 04:04:44;;;;;;;12.70;6.20;;;11.00;58.80;;;;;;5093627;28;20024;-74
2023/04/29 04:07:10;;;;;;;10.95;7.15;;;11.00;58.80;;;;;;5089669;28;20048;-74
2023/04/29 04:09:36;;;;;;;10.35;7.32;;;11.00;58.70;;;;;;5085447;28;20325;-73
2023/04/29 04:12:02;;;;;;;8.70;5.68;;;10.90;58.80;;;;;;5094165;28;20063;-73
2023/04/29 04:14:28;;;;;;;8.93;7.15;;;10.90;59.00;;;;;;5096012;28;20317;-73
2023/04/29 04:16:54;;;;;;;8.95;7.13;;;10.80;59.10;;;;;;5087784;28;20306;-74
2023/04/29 04:19:19;;;;;;;9.45;6.88;;;10.70;59.50;;;;;;5092509;28;20048;-76
2023/04/29 04:21:45;;;;;;;12.13;6.20;;;10.50;59.60;;;;;;5076533;28;20033;-75
2023/04/29 04:24:10;;;;;;;10.93;7.47;;;10.50;58.90;;;;;;5088070;28;20032;-75
2023/04/29 04:26:36;;;;;;;9.45;6.57;;;10.50;59.00;;;;;;5086331;28;20031;-74
2023/04/29 04:29:02;;;;;;;9.07;6.65;;;10.50;59.00;;;;;;5097189;28;20032;-74
2023/04/29 04:31:28;;;;;;;8.38;6.53;;;10.50;58.90;;;;;;5094799;28;20027;-74
2023/04/29 04:33:54;;;;;;;9.82;7.32;;;10.50;58.90;;;;;;5084408;28;20047;-74
2023/04/29 04:36:21;;;;;;;10.52;8.70;;;10.50;58.80;;;;;;5079691;28;20025;-74
2023/04/29 04:38:46;;;;;;;67.20;49.13;;;10.40;59.20;;;;;;5074290;28;20328;-74
2023/04/29 04:41:12;;;;;;;9.82;7.65;;;10.40;59.20;;;;;;5079758;28;20030;-73
2023/04/29 04:43:38;;;;;;;9.25;6.13;;;10.30;59.10;;;;;;5092191;28;20107;-74
2023/04/29 04:46:16;;;;;;;13.60;9.60;;;10.20;59.30;;;;;;5078782;28;20485;-74
2023/04/29 04:48:42;;;;;;;9.80;6.20;;;10.10;59.10;;;;;;5091781;28;20035;-74
2023/04/29 04:51:09;;;;;;;9.55;7.20;;;10.10;59.40;;;;;;5090545;28;20024;-74
2023/04/29 04:53:35;;;;;;;7.50;5.85;;;10.20;58.70;;;;;;5085678;28;20035;-74
2023/04/29 04:56:01;;;;;;;12.57;7.97;;;10.20;59.20;;;;;;5087097;28;20044;-74
2023/04/29 04:58:27;;;;;;;13.60;8.40;;;10.20;58.80;;;;;;5085199;28;20129;-74
2023/04/29 05:00:52;;;;;;;10.05;6.88;;;10.30;59.00;;;;;;5078032;28;20494;-74
2023/04/29 05:03:18;;;;;;;9.43;7.47;;;10.30;59.00;;;;;;5095232;28;20032;-74
2023/04/29 05:05:44;;;;;;;16.08;11.65;;;10.30;58.80;;;;;;5086471;28;20044;-74
2023/04/29 05:08:09;;;;;;;11.93;9.98;;;10.50;58.60;;;;;;5077961;28;20036;-74
2023/04/29 05:10:36;;;;;;;13.68;9.10;;;10.80;58.80;;;;;;5076444;28;20033;-74
2023/04/29 05:13:01;;;;;;;8.55;6.63;;;11.00;58.80;;;;;;5093609;28;20424;-74
2023/04/29 05:15:27;;;;;;;13.32;10.07;;;11.10;58.80;;;;;;5095919;28;20052;-74
2023/04/29 05:17:52;;;;;;;11.18;8.35;;;11.30;58.80;;;;;;5089871;28;20028;-74
2023/04/29 05:20:19;;;;;;;8.35;6.40;;;11.40;58.70;;;;;;5088015;28;20031;-74
2023/04/29 05:22:45;;;;;;;8.35;6.35;;;11.40;58.70;;;;;;5093128;28;20140;-74
2023/04/29 05:25:11;;;;;;;11.93;8.68;;;11.50;58.70;;;;;;5083410;28;20052;-74
2023/04/29 05:27:37;;;;;;;10.35;8.00;;;11.50;58.70;;;;;;5094417;28;20111;-75
2023/04/29 05:30:03;;;;;;;9.00;7.72;;;11.50;58.70;;;;;;5093552;28;20034;-74
2023/04/29 05:32:28;;;;;;;16.30;11.55;;;11.50;58.70;;;;;;5093955;28;20028;-75
2023/04/29 05:34:54;;;;;;;13.13;8.63;;;11.40;58.90;;;;;;5089194;28;20313;-73
2023/04/29 05:37:19;;;;;;;16.70;8.90;;;11.40;59.00;;;;;;5081541;28;20031;-74
2023/04/29 05:39:45;;;;;;;11.50;9.75;;;11.30;58.90;;;;;;5092305;28;20078;-73
2023/04/29 05:42:10;;;;;;;11.13;8.15;;;11.40;58.80;;;;;;5076708;28;20116;-75
2023/04/29 05:44:36;;;;;;;12.60;9.68;;;11.50;58.50;;;;;;5086812;28;20101;-75
2023/04/29 05:47:02;;;;;;;11.55;9.50;;;11.60;58.80;;;;;;5087520;28;20027;-75
2023/04/29 05:49:27;;;;;;;21.08;16.35;;;11.60;59.00;;;;;;5086455;28;20028;-74
2023/04/29 05:51:53;;;;;;;21.85;15.55;;;11.60;59.10;;;;;;5086880;28;20417;-74
2023/04/29 05:54:18;;;;;;;14.52;9.80;;;11.60;59.10;;;;;;5079838;28;20029;-75
2023/04/29 05:56:44;;;;;;;11.52;9.38;;;11.70;58.90;;;;;;5084014;28;20039;-75
2023/04/29 05:59:09;;;;;;;11.85;10.57;;;11.70;59.00;;;;;;5075570;28;20028;-75
2023/04/29 06:01:35;;;;;;;10.15;7.60;;;11.80;59.10;;;;;;5075623;28;20024;-75
2023/04/29 06:04:00;;;;;;;9.07;5.97;;;11.60;61.80;;;;;;5081103;28;20024;-75
2023/04/29 06:06:26;;;;;;;8.02;6.68;;;11.40;63.80;;;;;;5085368;28;20030;-74
2023/04/29 06:08:52;;;;;;;11.55;8.07;;;11.40;63.60;;;;;;5097821;28;20039;-75
2023/04/29 06:11:18;;;;;;;9.27;7.50;;;11.50;64.00;;;;;;5086612;28;20144;-75
2023/04/29 06:13:43;;;;;;;8.38;5.80;;;11.80;62.20;;;;;;5082072;28;20035;-75
2023/04/29 06:16:10;;;;;;;7.38;4.97;;;11.90;68.90;;;;;;5090565;28;20040;-75
2023/04/29 06:18:37;;;;;;;5.85;4.10;;;11.60;77.40;;;;;;5084332;28;20108;-75
2023/04/29 06:21:02;;;;;;;6.28;4.80;;;11.50;81.80;;;;;;5078038;28;20029;-75
2023/04/29 06:23:28;;;;;;;6.78;5.10;;;11.40;79.90;;;;;;5087604;28;20039;-75
2023/04/29 06:25:53;;;;;;;8.23;4.68;;;11.50;78.60;;;;;;5095420;28;20049;-75
2023/04/29 06:28:19;;;;;;;5.82;4.50;;;11.50;81.50;;;;;;5084309;28;20071;-75
2023/04/29 06:30:45;;;;;;;7.55;4.40;;;11.70;81.10;;;;;;5082834;28;20086;-75
2023/04/29 06:33:11;;;;;;;9.68;4.63;;;11.80;81.80;;;;;;5085999;28;20103;-75
2023/04/29 06:35:40;;;;;;;7.57;4.72;;;11.90;85.80;;;;;;5085411;28;20440;-75
2023/04/29 06:38:07;;;;;;;11.70;7.25;;;11.90;87.40;;;;;;5083898;28;20021;-76
2023/04/29 06:40:33;;;;;;;9.23;4.95;;;12.10;84.50;;;;;;5080823;28;20028;-75
2023/04/29 06:42:58;;;;;;;6.63;3.90;;;12.20;89.70;;;;;;5109366;22;20376;-76
2023/04/29 06:45:24;;;;;;;5.85;3.72;;;12.10;88.60;;;;;;5065498;28;20043;-76
2023/04/29 06:47:49;;;;;;;5.00;2.80;;;12.10;91.30;;;;;;5083204;28;20016;-75
2023/04/29 06:50:15;;;;;;;4.70;2.90;;;12.20;91.60;;;;;;5099034;28;20046;-75
2023/04/29 06:52:41;;;;;;;5.18;3.15;;;12.30;91.80;;;;;;5092138;28;20024;-76
2023/04/29 06:55:07;;;;;;;4.75;2.60;;;12.60;93.50;;;;;;5093662;28;20024;-76
2023/04/29 06:57:32;;;;;;;5.28;2.28;;;12.80;96.40;;;;;;5080270;28;20024;-75
2023/04/29 06:59:58;;;;;;;5.45;2.40;;;13.10;97.40;;;;;;5096744;28;20103;-75
2023/04/29 07:02:23;;;;;;;3.45;2.10;;;13.40;98.00;;;;;;5094215;28;20060;-75
2023/04/29 07:04:49;;;;;;;5.68;3.10;;;13.40;98.00;;;;;;5097225;28;20028;-75
2023/04/29 07:07:15;;;;;;;6.43;2.80;;;13.40;98.00;;;;;;5096654;28;20025;-76
2023/04/29 07:09:41;;;;;;;5.55;2.25;;;13.30;98.00;;;;;;5094671;28;20320;-75
2023/04/29 07:12:06;;;;;;;3.53;2.03;;;13.30;98.00;;;;;;5096053;28;20146;-75
2023/04/29 07:14:32;;;;;;;4.13;2.05;;;13.30;98.00;;;;;;5094318;28;20066;-75
2023/04/29 07:16:57;;;;;;;4.68;1.92;;;13.30;98.00;;;;;;5094025;28;20028;-75
2023/04/29 07:19:23;;;;;;;5.95;2.10;;;13.30;98.00;;;;;;5090342;28;20107;-75
2023/04/29 07:21:48;;;;;;;5.30;1.65;;;13.10;98.00;;;;;;5093885;28;20424;-74
2023/04/29 07:24:14;;;;;;;3.55;1.65;;;13.10;98.00;;;;;;5094299;28;20063;-74
2023/04/29 07:26:42;;;;;;;3.63;1.80;;;13.00;98.00;;;;;;5096624;28;20146;-74
2023/04/29 07:29:08;;;;;;;4.75;1.90;;;13.00;98.00;;;;;;5097010;28;20123;-75
2023/04/29 07:31:33;;;;;;;4.65;2.10;;;13.10;98.00;;;;;;5097911;28;20100;-74
2023/04/29 07:33:59;;;;;;;5.05;1.80;;;13.20;98.00;;;;;;5096005;28;20426;-74
2023/04/29 07:36:24;;;;;;;3.92;2.00;;;13.30;98.00;;;;;;5093827;28;20069;-74
2023/04/29 07:38:50;;;;;;;5.55;1.90;;;13.50;98.00;;;;;;5096082;28;20028;-74
2023/04/29 07:41:16;;;;;;;4.05;2.05;;;13.70;98.00;;;;;;5105201;28;20084;-74
2023/04/29 07:43:41;;;;;;;3.47;2.13;;;13.90;98.00;;;;;;5115608;28;20352;-74
2023/04/29 07:46:07;;;;;;;3.67;2.20;;;14.00;98.00;;;;;;5098672;28;20387;-74
2023/04/29 07:48:38;;;;;;;4.13;2.15;;;14.00;98.00;;;;;;5092526;28;20320;-74
2023/04/29 07:51:04;;;;;;;5.88;2.30;;;13.90;98.00;;;;;;5111929;28;20027;-74
2023/04/29 07:53:29;;;;;;;4.13;1.90;;;13.80;98.00;;;;;;5112223;28;20275;-74
2023/04/29 07:55:55;;;;;;;3.75;2.00;;;13.70;98.00;;;;;;5114836;28;20055;-74
2023/04/29 07:58:21;;;;;;;3.45;1.75;;;13.80;98.00;;;;;;5118811;27;20473;-73
2023/04/29 08:00:48;;;;;;;2.40;1.40;;;13.80;97.70;;;;;;5112941;28;20106;-72
2023/04/29 08:03:21;;;;;;;6.05;1.60;;;13.50;97.30;;;;;;5114974;27;20828;-74
2023/04/29 08:05:52;;;;;;;4.38;1.50;;;13.60;97.70;;;;;;5115954;27;20083;-74
2023/04/29 08:08:18;;;;;;;4.53;1.40;;;13.80;97.20;;;;;;5110212;27;20028;-75
2023/04/29 08:10:43;;;;;;;3.17;1.30;;;13.90;97.00;;;;;;5112934;27;20446;-73
2023/04/29 08:13:09;;;;;;;2.28;1.20;;;14.10;96.70;;;;;;5109406;28;20044;-74
2023/04/29 08:15:35;;;;;;;3.63;1.60;;;14.30;96.80;;;;;;5093098;28;20052;-74
2023/04/29 08:18:01;;;;;;;3.45;1.42;;;14.80;96.70;;;;;;5108394;27;20347;-74
2023/04/29 08:20:28;;;;;;;3.33;1.60;;;15.10;94.20;;;;;;5110623;27;20361;-75
2023/04/29 08:22:53;;;;;;;3.45;1.40;;;14.90;93.90;;;;;;5107737;28;20120;-75
2023/04/29 08:25:19;;;;;;;3.42;1.30;;;14.90;94.50;;;;;;5113031;28;20027;-74
2023/04/29 08:27:44;;;;;;;3.97;1.27;;;15.00;93.70;;;;;;5096795;28;20024;-73
2023/04/29 08:30:12;;;;;;;2.58;1.02;;;15.00;94.10;;;;;;5113822;28;20038;-74
2023/04/29 08:32:37;;;;;;;4.57;1.85;;;15.90;92.90;;;;;;5092024;28;20072;-74
2023/04/29 08:35:03;;;;;;;2.45;1.00;;;17.50;89.10;;;;;;5115125;28;20094;-74
2023/04/29 08:37:28;;;;;;;2.03;1.10;;;18.90;83.40;;;;;;5112869;28;20112;-74
2023/04/29 08:39:54;;;;;;;1.70;0.80;;;18.40;83.40;;;;;;5093803;28;20027;-74
2023/04/29 08:42:36;;;;;;;2.33;1.10;;;18.20;84.20;;;;;;5114079;28;20043;-74
2023/04/29 08:45:03;;;;;;;2.05;1.10;;;18.40;83.50;;;;;;5103250;28;20020;-74
2023/04/29 08:47:30;;;;;;;2.90;1.30;;;18.50;83.30;;;;;;5099028;28;20361;-74
2023/04/29 08:50:03;;;;;;;2.33;1.10;;;18.90;82.20;;;;;;5101617;27;20024;-74
2023/04/29 08:52:32;;;;;;;3.95;1.75;;;18.90;81.90;;;;;;5110739;27;20023;-74
2023/04/29 08:55:04;;;;;;;2.92;1.33;;;18.70;82.70;;;;;;5104648;27;20031;-74
2023/04/29 08:57:38;;;;;;;2.38;1.30;;;17.40;85.90;;;;;;5111306;27;20026;-74
2023/04/29 09:00:05;;;;;;;;;;;16.70;86.40;;;;;;5090291;28;20027;-74
2023/04/29 09:02:31;;;;;;;3.60;1.50;;;16.70;87.80;;;;;;5103287;28;19908;-74
2023/04/29 09:05:06;;;;;;;3.65;1.67;;;16.50;87.50;;;;;;5112336;28;20054;-74
2023/04/29 09:07:34;;;;;;;4.93;1.63;;;15.80;89.10;;;;;;5087531;28;20028;-74
2023/04/29 09:10:03;;;;;;;3.25;1.50;;;15.90;89.50;;;;;;5112801;28;20031;-74
2023/04/29 09:12:29;;;;;;;3.67;1.20;;;15.80;90.00;;;;;;5107489;28;20380;-74
2023/04/29 09:14:55;;;;;;;4.65;1.20;;;16.00;89.30;;;;;;5104289;28;20031;-74
2023/04/29 09:17:45;;;;;;;2.50;1.25;;;15.90;89.10;;;;;;5110877;28;20442;-74
2023/04/29 09:20:31;;;;;;;2.92;1.20;;;16.20;91.20;;;;;;5108486;28;20028;-74
2023/04/29 09:23:03;;;;;;;5.53;1.60;;;16.60;87.00;;;;;;5110815;28;20035;-74
2023/04/29 09:25:33;;;;;;;4.20;1.30;;;16.20;87.70;;;;;;5095284;28;20484;-73
2023/04/29 09:28:15;;;;;;;2.40;1.15;;;16.70;88.00;;;;;;5107840;28;20036;-74
2023/04/29 09:30:46;;;;;;;4.88;1.80;;;17.50;83.70;;;;;;5108312;28;20085;-74
2023/04/29 09:33:12;;;;;;;6.07;2.50;;;17.20;85.70;;;;;;5105714;28;20019;-74
2023/04/29 09:35:40;;;;;;;6.05;2.40;;;16.70;86.80;;;;;;5108930;28;20106;-75
2023/04/29 09:38:11;;;;;;;4.55;1.83;;;16.40;88.10;;;;;;5111784;28;20020;-74
2023/04/29 09:40:38;;;;;;;4.78;1.80;;;16.10;88.30;;;;;;5097805;28;20024;-74
2023/04/29 09:43:12;;;;;;;3.08;1.30;;;16.20;88.80;;;;;;5107778;28;20052;-74
2023/04/29 09:45:45;;;;;;;2.83;0.90;;;16.80;88.20;;;;;;5093395;28;20431;-74
2023/04/29 09:48:11;;;;;;;4.45;1.40;;;18.30;83.80;;;;;;5110884;28;20103;-74
2023/04/29 09:50:38;;;;;;;4.47;1.23;;;18.70;81.00;;;;;;5102504;28;20020;-74
2023/04/29 09:53:07;;;;;;;2.95;1.17;;;18.80;81.30;;;;;;5109174;28;20028;-74
2023/04/29 09:55:56;;;;;;;3.75;1.10;;;19.40;79.00;;;;;;5112998;28;20030;-74
2023/04/29 09:58:35;;;;;;;3.75;1.40;;;19.60;78.80;;;;;;5101562;28;20044;-75
2023/04/29 10:01:04;;;;;;;1.90;1.00;;;19.80;77.70;;;;;;5114467;28;20019;-75
2023/04/29 10:03:37;;;;;;;4.38;1.70;;;19.20;78.60;;;;;;5113865;28;20027;-74
2023/04/29 10:06:04;;;;;;;1.48;0.90;;;18.40;79.70;;;;;;5095906;28;20036;-74
2023/04/29 10:08:32;;;;;;;4.35;1.35;;;17.70;81.80;;;;;;5112089;28;20292;-75
2023/04/29 10:11:02;;;;;;;5.38;1.73;;;17.60;82.20;;;;;;5116150;28;20023;-74
2023/04/29 10:13:29;;;;;;;2.20;1.00;;;18.00;82.60;;;;;;5090063;28;20108;-74
2023/04/29 10:16:13;;;;;;;4.65;1.58;;;17.40;82.90;;;;;;5114136;28;20032;-74
2023/04/29 10:18:43;;;;;;;5.20;2.00;;;17.70;83.00;;;;;;5109793;28;20080;-75
2023/04/29 10:21:10;;;;;;;3.75;1.50;;;19.40;80.70;;;;;;5098950;28;20035;-74
2023/04/29 10:23:36;;;;;;;3.05;1.42;;;19.40;78.10;;;;;;5112309;28;20315;-74
2023/04/29 10:26:03;;;;;;;4.70;1.85;;;19.10;79.00;;;;;;5102788;28;20027;-74
2023/04/29 10:28:31;;;;;;;2.88;1.30;;;18.80;79.60;;;;;;5095977;28;20430;-74
2023/04/29 10:31:00;;;;;;;2.78;1.20;;;18.20;81.80;;;;;;5097905;28;20027;-74
2023/04/29 10:33:26;;;;;;;4.30;1.40;;;18.20;81.30;;;;;;5113564;28;20030;-74
2023/04/29 10:35:54;;;;;;;5.93;1.60;;;17.90;81.80;;;;;;5113593;28;20031;-74
2023/04/29 10:38:29;;;;;;;6.65;2.67;;;17.50;83.30;;;;;;5113708;28;20035;-74
2023/04/29 10:40:59;;;;;;;4.25;1.30;;;17.30;83.50;;;;;;5086913;28;20118;-74
2023/04/29 10:43:25;;;;;;;3.00;1.20;;;17.20;82.30;;;;;;5106044;28;20063;-74
2023/04/29 10:46:21;;;;;;;4.22;2.00;;;17.00;83.90;;;;;;5114884;28;20099;-73
2023/04/29 10:48:48;;;;;;;4.07;1.45;;;17.00;84.00;;;;;;5097843;28;20047;-74
2023/04/29 10:51:30;;;;;;;2.92;1.17;;;17.50;83.60;;;;;;5113762;28;20446;-74
2023/04/29 10:54:24;;;;;;;2.78;1.15;;;18.00;82.30;;;;;;5116292;28;20081;-73
2023/04/29 10:56:51;;;;;;;2.38;1.00;;;19.20;80.20;;;;;;5117926;28;20023;-74
2023/04/29 10:59:21;;;;;;;4.05;1.60;;;20.10;77.90;;;;;;5099592;28;20030;-74
2023/04/29 11:01:52;;;;;;;3.05;1.30;;;20.40;73.70;;;;;;5118595;28;20039;-74
2023/04/29 11:04:21;;;;;;;3.22;1.40;;;19.60;73.90;;;;;;5099356;28;20027;-73
2023/04/29 11:06:55;;;;;;;2.65;1.13;;;18.60;77.90;;;;;;5083366;28;20028;-74
2023/04/29 11:09:25;;;;;;;6.25;2.08;;;18.60;79.10;;;;;;5107481;28;20123;-74
2023/04/29 11:12:02;;;;;;;2.22;1.20;;;19.10;78.70;;;;;;5117214;28;20652;-74
2023/04/29 11:14:49;;;;;;;3.00;1.17;;;19.80;77.70;;;;;;5117159;28;20024;-74
2023/04/29 11:17:18;;;;;;;2.28;1.00;;;19.50;75.80;;;;;;5118818;28;20055;-74
2023/04/29 11:19:49;;;;;;;5.47;1.65;;;18.30;78.20;;;;;;5115293;28;20019;-74
2023/04/29 11:22:18;;;;;;;4.55;1.42;;;17.90;80.10;;;;;;5114660;28;20028;-74
2023/04/29 11:25:01;;;;;;;3.50;1.50;;;17.80;81.20;;;;;;5099712;28;20035;-74
2023/04/29 11:27:35;;;;;;;3.33;1.30;;;18.10;80.50;;;;;;5109437;28;20048;-74
2023/04/29 11:30:03;;;;;;;3.83;1.20;;;18.30;80.20;;;;;;5114997;28;20038;-74
2023/04/29 11:32:40;;;;;;;2.30;1.10;;;18.20;79.60;;;;;;5116680;28;20032;-74
2023/04/29 11:35:16;;;;;;;2.75;1.20;;;18.50;78.50;;;;;;5098931;28;20019;-73
2023/04/29 11:37:44;;;;;;;1.50;0.80;;;19.10;76.90;;;;;;5104278;28;20016;-73
2023/04/29 11:40:12;;;;;;;3.78;1.10;;;20.00;75.20;;;;;;5111029;28;20058;-74
2023/04/29 11:42:45;;;;;;;2.90;1.25;;;20.20;75.00;;;;;;5112164;28;20151;-74
2023/04/29 11:45:12;;;;;;;4.00;1.20;;;19.90;75.70;;;;;;5110125;28;20089;-74
2023/04/29 11:47:42;;;;;;;2.20;1.23;;;19.20;76.70;;;;;;5111301;28;20486;-74
2023/04/29 11:50:09;;;;;;;4.38;1.10;;;18.90;79.60;;;;;;5114256;28;20031;-73
2023/04/29 11:52:36;;;;;;;4.32;1.23;;;19.00;80.50;;;;;;5116162;28;20076;-73
2023/04/29 11:55:03;;;;;;;5.25;1.10;;;19.30;79.10;;;;;;5114945;28;20034;-73
2023/04/29 11:57:29;;;;;;;3.95;1.27;;;18.90;80.00;;;;;;5112504;28;20039;-74
2023/04/29 11:59:56;;;;;;;3.95;1.33;;;19.20;79.70;;;;;;5111050;28;20028;-73
2023/04/29 12:02:27;;;;;;;3.72;1.50;;;19.50;78.30;;;;;;5115091;28;20028;-74
2023/04/29 12:04:56;;;;;;;3.90;1.67;;;19.80;77.50;;;;;;5115049;28;20050;-73
2023/04/29 12:07:25;;;;;;;3.88;1.30;;;18.80;80.10;;;;;;5079750;28;20502;-74
2023/04/29 12:09:50;;;;;;;2.67;1.27;;;19.10;80.00;;;;;;5112529;28;20466;-73
2023/04/29 12:12:16;;;;;;;2.35;0.90;;;19.30;79.30;;;;;;5115571;28;20059;-73
2023/04/29 12:14:42;;;;;;;2.20;1.10;;;19.30;76.60;;;;;;5095784;28;20039;-74
2023/04/29 12:17:09;;;;;;;3.70;1.67;;;19.20;76.10;;;;;;5093332;28;20035;-74
2023/04/29 12:19:38;;;;;;;2.50;1.17;;;19.00;77.90;;;;;;5111643;28;20472;-73
2023/04/29 12:22:04;;;;;;;3.42;1.20;;;19.20;77.80;;;;;;5113700;28;20035;-73
2023/04/29 12:24:35;;;;;;;2.75;1.00;;;19.40;77.20;;;;;;5108836;28;20019;-73
2023/04/29 12:27:01;;;;;;;1.90;1.02;;;19.80;77.20;;;;;;5116468;28;20038;-73
2023/04/29 12:29:27;;;;;;;2.38;1.17;;;19.80;76.20;;;;;;5112444;28;20035;-74
2023/04/29 12:31:54;;;;;;;3.28;1.55;;;18.90;76.60;;;;;;5111107;28;20020;-75
2023/04/29 12:34:30;;;;;;;5.70;2.10;;;18.80;77.70;;;;;;5107614;28;20111;-74
2023/04/29 12:36:59;;;;;;;3.63;1.50;;;18.80;77.70;;;;;;5110194;27;20051;-75
2023/04/29 12:39:29;;;;;;;2.35;1.10;;;19.70;76.20;;;;;;5110622;27;20043;-74
2023/04/29 12:41:59;;;;;;;3.28;1.08;;;20.40;73.70;;;;;;5116833;27;20198;-74
2023/04/29 12:44:25;;;;;;;2.55;1.00;;;20.80;73.60;;;;;;5126786;27;20035;-73
2023/04/29 12:46:54;;;;;;;2.70;1.00;;;21.20;70.60;;;;;;5126773;27;20051;-73
2023/04/29 12:49:27;;;;;;;1.88;1.00;;;21.00;71.50;;;;;;5125122;27;20023;-72